4°C Temp
0°C Dewpoint
75% Humidity
Temperature
23 KM/H
14 MPH
12 KTS
260°
Due West

Wind Speed
Clear
Conditions
Pressure 1013.92 (hPa) - 29.94 (in)
Visibility 6.2 (mi) - 10.0 (km)

Current Conditions
EFHK
Location Helsinki Vantaa 67(km)
Metar :EFHK 150520Z 26012KT CAVOK 04/M00 Q1014 NOSIG
Fri 15th February 07:20 am

Airport
  Metar Aviation API Data Provided by https://www.checkwx.com/ PHP scripts by weather34.com ©2019